TimeCST,TemperatureF,Dew PointF,Humidity,Sea Level PressureIn,VisibilityMPH,Wind Direction,Wind SpeedMPH,Gust SpeedMPH,PrecipitationIn,Events,Conditions,WindDirDegrees,DateUTC
12:54 AM,43.0,37.0,80,29.95,10.0,WNW,8.1,-,N/A,,Overcast,300,2012-11-07 06:54:00
1:54 AM,43.0,37.0,80,29.96,10.0,NW,9.2,-,N/A,,Overcast,310,2012-11-07 07:54:00
2:54 AM,43.0,37.0,80,29.94,10.0,NW,8.1,-,N/A,,Overcast,310,2012-11-07 08:54:00
3:54 AM,43.0,37.0,80,29.95,10.0,NW,10.4,-,N/A,,Overcast,310,2012-11-07 09:54:00
4:54 AM,43.0,36.0,76,29.97,10.0,NW,16.1,-,N/A,,Overcast,320,2012-11-07 10:54:00
5:36 AM,42.8,35.6,76,29.98,10.0,NNW,17.3,21.9,N/A,,Overcast,340,2012-11-07 11:36:00
5:54 AM,41.0,35.1,79,30.00,10.0,NNW,15.0,-,N/A,,Overcast,340,2012-11-07 11:54:00
6:54 AM,41.0,37.0,86,30.03,10.0,NNW,11.5,-,N/A,,Overcast,340,2012-11-07 12:54:00
7:54 AM,41.0,37.9,89,30.07,10.0,North,11.5,-,N/A,,Overcast,350,2012-11-07 13:54:00
8:27 AM,42.8,37.4,81,30.07,10.0,North,12.7,-,N/A,,Overcast,350,2012-11-07 14:27:00
8:54 AM,42.1,37.9,85,30.09,10.0,North,11.5,-,N/A,,Overcast,360,2012-11-07 14:54:00
9:11 AM,42.8,37.4,81,30.09,9.0,North,16.1,-,N/A,,Overcast,350,2012-11-07 15:11:00
9:54 AM,43.0,37.0,80,30.12,10.0,North,10.4,-,N/A,,Overcast,360,2012-11-07 15:54:00
10:54 AM,44.1,36.0,73,30.13,10.0,North,9.2,-,N/A,,Overcast,10,2012-11-07 16:54:00
11:41 AM,44.6,35.6,71,30.12,10.0,NNW,10.4,-,N/A,,Overcast,340,2012-11-07 17:41:00
11:54 AM,44.1,35.1,71,30.13,10.0,North,10.4,-,N/A,,Overcast,350,2012-11-07 17:54:00
12:54 PM,46.0,35.1,66,30.12,10.0,NNW,8.1,-,N/A,,Mostly Cloudy,340,2012-11-07 18:54:00
1:27 PM,46.4,35.6,66,30.11,10.0,NNE,9.2,-,N/A,,Overcast,20,2012-11-07 19:27:00
1:35 PM,44.6,35.6,71,30.11,10.0,NNE,9.2,-,N/A,,Overcast,20,2012-11-07 19:35:00
1:44 PM,44.6,35.6,71,30.11,10.0,North,9.2,-,N/A,,Overcast,350,2012-11-07 19:44:00
1:54 PM,46.0,35.1,66,30.12,10.0,NNW,9.2,-,N/A,,Overcast,340,2012-11-07 19:54:00
2:54 PM,46.0,34.0,63,30.12,10.0,North,6.9,-,N/A,,Overcast,350,2012-11-07 20:54:00
3:54 PM,44.1,30.9,60,30.14,10.0,NNW,4.6,-,N/A,,Mostly Cloudy,330,2012-11-07 21:54:00
4:54 PM,43.0,35.1,74,30.15,10.0,NE,3.5,-,N/A,,Overcast,50,2012-11-07 22:54:00
5:54 PM,44.1,35.1,71,30.16,10.0,Calm,Calm,-,N/A,,Overcast,0,2012-11-07 23:54:00
6:54 PM,43.0,35.1,74,30.17,10.0,Calm,Calm,-,N/A,,Overcast,0,2012-11-08 00:54:00
7:08 PM,42.8,35.6,76,30.15,10.0,East,3.5,-,N/A,,Overcast,100,2012-11-08 01:08:00
7:33 PM,42.8,33.8,70,30.15,10.0,ESE,4.6,-,N/A,,Overcast,110,2012-11-08 01:33:00
7:54 PM,43.0,34.0,71,30.17,10.0,ESE,5.8,-,N/A,,Overcast,120,2012-11-08 01:54:00
8:54 PM,42.1,35.1,76,30.18,10.0,ESE,3.5,-,N/A,,Overcast,120,2012-11-08 02:54:00
9:54 PM,39.0,33.1,79,30.18,10.0,SE,4.6,-,N/A,,Clear,130,2012-11-08 03:54:00
10:54 PM,36.0,32.0,86,30.19,10.0,SSE,4.6,-,N/A,,Clear,150,2012-11-08 04:54:00
11:54 PM,37.9,33.1,83,30.18,10.0,SE,5.8,-,N/A,,Clear,130,2012-11-08 05:54:00